createdAt,value
2017-09-12T00:01:15.525Z,998.24
2017-09-12T00:02:37.953Z,998.27
2017-09-12T00:04:00.090Z,998.19
2017-09-12T00:05:22.542Z,998.24
2017-09-12T00:06:43.723Z,998.26
2017-09-12T00:08:06.433Z,998.23
2017-09-12T00:09:28.347Z,998.25
2017-09-12T00:10:50.183Z,998.25
2017-09-12T00:12:12.331Z,998.22
2017-09-12T00:13:34.551Z,998.24
2017-09-12T00:14:57.084Z,998.25
2017-09-12T00:16:18.679Z,998.25
2017-09-12T00:17:40.814Z,998.25
2017-09-12T00:19:03.554Z,998.24
2017-09-12T00:20:25.034Z,998.25
2017-09-12T00:21:47.512Z,998.26
2017-09-12T00:23:09.355Z,998.31
2017-09-12T00:24:31.844Z,998.34
2017-09-12T00:25:53.322Z,998.37
2017-09-12T00:27:15.143Z,998.36
2017-09-12T00:28:36.965Z,998.33
2017-09-12T00:29:58.844Z,998.33
2017-09-12T00:31:20.654Z,998.33
2017-09-12T00:32:42.164Z,998.35
2017-09-12T00:34:04.243Z,998.34
2017-09-12T00:35:26.636Z,998.39
2017-09-12T00:36:48.764Z,998.36
2017-09-12T00:38:10.950Z,998.31
2017-09-12T00:39:33.074Z,998.41
2017-09-12T00:42:31.833Z,998.37
2017-09-12T00:43:54.314Z,998.3
2017-09-12T00:45:16.484Z,998.32
2017-09-12T00:46:38.973Z,998.31
2017-09-12T00:48:00.793Z,998.28
2017-09-12T00:49:23.027Z,998.26
2017-09-12T00:50:44.514Z,998.27
2017-09-12T00:52:06.613Z,998.36
2017-09-12T00:53:28.420Z,998.36
2017-09-12T00:54:50.403Z,998.35
2017-09-12T00:56:12.331Z,998.35
2017-09-12T00:57:34.856Z,998.4
2017-09-12T00:58:56.686Z,998.4
2017-09-12T01:00:17.852Z,998.42
2017-09-12T01:01:39.344Z,998.43
2017-09-12T01:03:01.414Z,998.43
2017-09-12T01:04:23.541Z,998.41
2017-09-12T01:05:44.717Z,998.44
2017-09-12T01:07:07.183Z,998.39
2017-09-12T01:08:28.935Z,998.43
2017-09-12T01:09:51.465Z,998.42
2017-09-12T01:11:13.305Z,998.42
2017-09-12T01:12:35.231Z,998.42
2017-09-12T01:13:57.735Z,998.43
2017-09-12T01:15:19.958Z,998.46
2017-09-12T01:16:42.118Z,998.4
2017-09-12T01:18:04.364Z,998.4
2017-09-12T01:19:26.799Z,998.45
2017-09-12T01:20:48.625Z,998.48
2017-09-12T01:22:10.504Z,998.44
2017-09-12T01:23:32.627Z,998.48
2017-09-12T01:24:54.684Z,998.44
2017-09-12T01:26:15.911Z,998.5
2017-09-12T01:27:38.087Z,998.48
2017-09-12T01:29:00.229Z,998.54
2017-09-12T01:30:22.677Z,998.51
2017-09-12T01:31:44.494Z,998.52
2017-09-12T01:33:05.980Z,998.53
2017-09-12T01:34:28.432Z,998.49
2017-09-12T01:35:50.612Z,998.49
2017-09-12T01:37:13.064Z,998.51
2017-09-12T01:38:34.859Z,998.5
2017-09-12T01:39:57.005Z,998.54
2017-09-12T01:41:19.494Z,998.52
2017-09-12T01:42:41.634Z,998.54
2017-09-12T01:44:03.774Z,998.57
2017-09-12T01:45:25.267Z,998.57
2017-09-12T01:46:47.432Z,998.6
2017-09-12T01:48:08.937Z,998.57
2017-09-12T01:49:31.103Z,998.62
2017-09-12T01:50:52.615Z,998.62
2017-09-12T01:52:14.355Z,998.67
2017-09-12T01:53:35.864Z,998.56
2017-09-12T01:54:58.084Z,998.65
2017-09-12T01:56:20.202Z,998.7
2017-09-12T01:57:42.085Z,998.76
2017-09-12T01:59:03.914Z,998.86
2017-09-12T02:00:26.063Z,998.77
2017-09-12T02:01:47.907Z,998.78
2017-09-12T02:03:10.314Z,998.86
2017-09-12T02:04:32.195Z,998.85
2017-09-12T02:05:53.414Z,998.89
2017-09-12T02:07:15.223Z,998.9
2017-09-12T02:08:37.637Z,998.9
2017-09-12T02:09:59.792Z,998.88
2017-09-12T02:11:21.595Z,998.91
2017-09-12T02:12:43.776Z,998.86
2017-09-12T02:14:06.365Z,998.92
2017-09-12T02:15:28.162Z,998.88
2017-09-12T02:16:49.973Z,998.98
2017-09-12T02:18:11.464Z,999.03
2017-09-12T02:19:33.211Z,998.97
2017-09-12T02:20:55.394Z,998.97
2017-09-12T02:22:17.029Z,999.04
2017-09-12T02:23:38.213Z,999.04
2017-09-12T02:24:59.952Z,999.03
2017-09-12T02:26:21.483Z,999.08
2017-09-12T02:27:42.661Z,999.05
2017-09-12T02:29:04.154Z,999.12
2017-09-12T02:30:26.318Z,999.1
2017-09-12T02:31:48.111Z,999.15
2017-09-12T02:33:09.591Z,999.12
2017-09-12T02:34:31.384Z,999.11
2017-09-12T02:35:53.235Z,999.1
2017-09-12T02:37:15.684Z,999.11
2017-09-12T02:38:37.804Z,999.07
2017-09-12T02:39:59.654Z,999.13
2017-09-12T02:41:22.090Z,999.15
2017-09-12T02:42:44.535Z,999.13
2017-09-12T02:44:06.655Z,999.18
2017-09-12T02:45:28.515Z,999.21
2017-09-12T02:46:51.275Z,999.13
2017-09-12T02:48:13.074Z,999.19
2017-09-12T02:49:34.232Z,999.24
2017-09-12T02:50:56.415Z,999.15
2017-09-12T02:52:19.235Z,999.19
2017-09-12T02:53:41.397Z,999.19
2017-09-12T02:55:03.624Z,999.19
2017-09-12T02:56:25.434Z,999.16
2017-09-12T02:57:47.822Z,999.2
2017-09-12T02:59:09.393Z,999.2
2017-09-12T03:00:31.206Z,999.23
2017-09-12T03:01:53.024Z,999.25
2017-09-12T03:03:14.943Z,999.19
2017-09-12T03:04:37.174Z,999.25
2017-09-12T03:05:59.423Z,999.28
2017-09-12T03:07:21.573Z,999.29
2017-09-12T03:08:43.992Z,999.28
2017-09-12T03:10:05.793Z,999.31
2017-09-12T03:11:27.284Z,999.28
2017-09-12T03:12:49.113Z,999.31
2017-09-12T03:14:11.225Z,999.27
2017-09-12T03:15:33.412Z,999.28
2017-09-12T03:16:55.232Z,999.26
2017-09-12T03:18:17.370Z,999.3
2017-09-12T03:19:39.103Z,999.29
2017-09-12T03:21:00.910Z,999.34
2017-09-12T03:22:23.032Z,999.29
2017-09-12T03:23:45.212Z,999.3
2017-09-12T03:25:07.443Z,999.34
2017-09-12T03:26:29.243Z,999.33
2017-09-12T03:27:51.423Z,999.39
2017-09-12T03:29:12.927Z,999.42
2017-09-12T03:30:35.163Z,999.41
2017-09-12T03:31:57.302Z,999.37
2017-09-12T03:33:19.216Z,999.39
2017-09-12T03:34:40.711Z,999.39
2017-09-12T03:36:02.471Z,999.37
2017-09-12T03:37:24.263Z,999.35
2017-09-12T03:38:46.442Z,999.39
2017-09-12T03:40:08.651Z,999.35
2017-09-12T03:41:31.191Z,999.39
2017-09-12T03:42:53.019Z,999.35
2017-09-12T03:44:14.842Z,999.43
2017-09-12T03:45:36.969Z,999.41
2017-09-12T03:46:59.181Z,999.38
2017-09-12T03:48:20.991Z,999.39
2017-09-12T03:49:42.491Z,999.4
2017-09-12T03:51:04.080Z,999.39
2017-09-12T03:52:26.161Z,999.4
2017-09-12T03:53:47.996Z,999.38
2017-09-12T03:55:09.512Z,999.36
2017-09-12T03:56:31.646Z,999.4
2017-09-12T03:57:54.467Z,999.35
2017-09-12T03:59:16.283Z,999.33
2017-09-12T04:00:37.799Z,999.35
2017-09-12T04:02:00.244Z,999.36
2017-09-12T04:03:22.777Z,999.39
2017-09-12T04:04:44.642Z,999.44
2017-09-12T04:06:06.853Z,999.43
2017-09-12T04:07:28.792Z,999.39
2017-09-12T04:08:50.623Z,999.42
2017-09-12T04:10:13.164Z,999.38
2017-09-12T04:11:34.981Z,999.43
2017-09-12T04:12:56.801Z,999.41
2017-09-12T04:14:19.243Z,999.4
2017-09-12T04:15:41.063Z,999.43
2017-09-12T04:17:02.551Z,999.39
2017-09-12T04:18:24.122Z,999.41
2017-09-12T04:19:46.582Z,999.43
2017-09-12T04:21:09.053Z,999.45
2017-09-12T04:22:30.597Z,999.47
2017-09-12T04:23:52.098Z,999.5
2017-09-12T04:25:14.172Z,999.55
2017-09-12T04:26:35.996Z,999.52
2017-09-12T04:27:57.843Z,999.49
2017-09-12T04:29:19.991Z,999.49
2017-09-12T04:30:42.121Z,999.51
2017-09-12T04:32:04.191Z,999.52
2017-09-12T04:33:26.021Z,999.5
2017-09-12T04:34:47.224Z,999.56
2017-09-12T04:36:09.924Z,999.56
2017-09-12T04:37:32.371Z,999.54
2017-09-12T04:38:54.510Z,999.55
2017-09-12T04:40:16.660Z,999.57
2017-09-12T04:41:39.143Z,999.54
2017-09-12T04:43:00.962Z,999.57
2017-09-12T04:44:22.789Z,999.56
2017-09-12T04:45:44.692Z,999.56
2017-09-12T04:47:06.807Z,999.54
2017-09-12T04:48:28.635Z,999.56
2017-09-12T04:49:50.801Z,999.54
2017-09-12T04:51:12.615Z,999.57
2017-09-12T04:52:35.103Z,999.6
2017-09-12T04:53:57.302Z,999.59
2017-09-12T04:55:19.121Z,999.59
2017-09-12T04:56:40.614Z,999.59
2017-09-12T04:58:03.169Z,999.54
2017-09-12T04:59:25.460Z,999.56
2017-09-12T05:00:47.604Z,999.59
2017-09-12T05:02:09.835Z,999.63
2017-09-12T05:03:32.224Z,999.65
2017-09-12T05:04:54.362Z,999.66
2017-09-12T05:06:16.472Z,999.65
2017-09-12T05:07:38.300Z,999.65
2017-09-12T05:09:00.681Z,999.69
2017-09-12T05:10:22.482Z,999.67
2017-09-12T05:11:44.282Z,999.69
2017-09-12T05:13:06.442Z,999.77
2017-09-12T05:14:28.559Z,999.76
2017-09-12T05:15:50.673Z,999.76
2017-09-12T05:17:13.151Z,999.83
2017-09-12T05:18:35.294Z,999.82
2017-09-12T05:19:57.351Z,999.85
2017-09-12T05:21:19.172Z,999.88
2017-09-12T05:22:41.303Z,999.91
2017-09-12T05:24:03.153Z,999.95
2017-09-12T05:25:25.209Z,999.99
2017-09-12T05:26:47.360Z,1000.01
2017-09-12T05:28:08.863Z,999.99
2017-09-12T05:29:30.665Z,1000.03
2017-09-12T05:30:53.153Z,1000.1
2017-09-12T05:32:15.342Z,1000.14
2017-09-12T05:33:37.172Z,1000.07
2017-09-12T05:34:59.360Z,1000.1
2017-09-12T05:36:21.453Z,1000.09
2017-09-12T05:37:43.591Z,1000.12
2017-09-12T05:39:05.797Z,1000.12
2017-09-12T05:40:27.942Z,1000.18
2017-09-12T05:41:50.381Z,1000.15
2017-09-12T05:43:12.565Z,1000.23
2017-09-12T05:44:34.383Z,1000.19
2017-09-12T05:45:56.520Z,1000.25
2017-09-12T05:47:18.616Z,1000.25
2017-09-12T05:48:40.767Z,1000.25
2017-09-12T05:50:02.263Z,1000.24
2017-09-12T05:51:24.403Z,1000.23
2017-09-12T05:52:46.483Z,1000.26
2017-09-12T05:54:08.297Z,1000.29
2017-09-12T05:55:29.792Z,1000.26
2017-09-12T05:56:51.612Z,1000.29
2017-09-12T05:58:14.022Z,1000.34
2017-09-12T05:59:35.873Z,1000.38
2017-09-12T06:00:58.353Z,1000.37
2017-09-12T06:02:20.490Z,1000.43
2017-09-12T06:03:43.233Z,1000.43
2017-09-12T06:05:05.384Z,1000.43
2017-09-12T06:06:27.561Z,1000.47
2017-09-12T06:07:49.684Z,1000.51
2017-09-12T06:09:12.056Z,1000.52
2017-09-12T06:10:34.183Z,1000.6
2017-09-12T06:11:56.004Z,1000.65
2017-09-12T06:13:18.225Z,1000.66
2017-09-12T06:14:40.758Z,1000.65
2017-09-12T06:16:02.882Z,1000.7
2017-09-12T06:17:25.025Z,1000.67
2017-09-12T06:18:47.617Z,1000.7
2017-09-12T06:20:09.695Z,1000.73
2017-09-12T06:21:31.185Z,1000.71
2017-09-12T06:22:53.005Z,1000.73
2017-09-12T06:24:15.403Z,1000.77
2017-09-12T06:25:37.420Z,1000.75
2017-09-12T06:26:58.547Z,1000.79
2017-09-12T06:28:20.195Z,1000.8
2017-09-12T06:29:42.253Z,1000.79
2017-09-12T06:31:04.271Z,1000.8
2017-09-12T06:32:26.389Z,1000.82
2017-09-12T06:33:48.181Z,1000.86
2017-09-12T06:35:10.598Z,1000.86
2017-09-12T06:36:33.044Z,1000.89
2017-09-12T06:37:55.203Z,1000.9
2017-09-12T06:39:16.390Z,1000.91
2017-09-12T06:40:38.254Z,1000.9
2017-09-12T06:42:00.724Z,1000.96
2017-09-12T06:43:23.192Z,1001
2017-09-12T06:44:45.007Z,1001.01
2017-09-12T06:46:07.129Z,1001.04
2017-09-12T06:47:29.174Z,1001.08
2017-09-12T06:48:51.458Z,1001.09
2017-09-12T06:50:13.624Z,1001.11
2017-09-12T06:51:36.084Z,1001.1
2017-09-12T06:52:58.911Z,1001.17
2017-09-12T06:54:21.134Z,1001.2
2017-09-12T06:55:42.972Z,1001.23
2017-09-12T06:57:05.107Z,1001.21
2017-09-12T06:58:27.274Z,1001.26
2017-09-12T06:59:48.438Z,1001.23
2017-09-12T07:01:10.916Z,1001.25
2017-09-12T07:02:33.388Z,1001.21
2017-09-12T07:03:56.274Z,1001.27
2017-09-12T07:05:18.113Z,1001.27
2017-09-12T07:06:39.953Z,1001.24
2017-09-12T07:08:01.125Z,1001.24
2017-09-12T07:09:23.331Z,1001.31
2017-09-12T07:10:45.475Z,1001.33
2017-09-12T07:12:07.636Z,1001.37
2017-09-12T07:13:29.473Z,1001.35
2017-09-12T07:14:52.282Z,1001.4
2017-09-12T07:16:13.867Z,1001.44
2017-09-12T07:17:36.425Z,1001.51
2017-09-12T07:18:58.244Z,1001.53
2017-09-12T07:20:20.412Z,1001.52
2017-09-12T07:21:42.235Z,1001.53
2017-09-12T07:23:04.078Z,1001.57
2017-09-12T07:24:25.903Z,1001.58
2017-09-12T07:25:48.053Z,1001.58
2017-09-12T07:27:09.229Z,1001.63
2017-09-12T07:28:31.564Z,1001.62
2017-09-12T07:29:53.714Z,1001.67
2017-09-12T07:31:16.246Z,1001.74
2017-09-12T07:32:38.391Z,1001.74
2017-09-12T07:34:00.333Z,1001.74
2017-09-12T07:35:21.513Z,1001.75
2017-09-12T07:36:43.384Z,1001.77
2017-09-12T07:38:05.838Z,1001.77
2017-09-12T07:39:27.996Z,1001.8
2017-09-12T07:40:50.525Z,1001.82
2017-09-12T07:42:13.364Z,1001.89
2017-09-12T07:43:35.822Z,1001.87
2017-09-12T07:44:57.654Z,1001.96
2017-09-12T07:46:19.491Z,1001.95
2017-09-12T07:47:41.992Z,1001.94
2017-09-12T07:49:03.812Z,1002.02
2017-09-12T07:50:25.069Z,1002.04
2017-09-12T07:51:47.292Z,1002.01
2017-09-12T07:53:09.497Z,1002.06
2017-09-12T07:54:31.645Z,1002.05
2017-09-12T07:55:53.983Z,1002.17
2017-09-12T07:57:16.182Z,1002.25
2017-09-12T07:58:38.322Z,1002.21
2017-09-12T08:00:00.138Z,1002.23
2017-09-12T08:01:23.389Z,1002.3
2017-09-12T08:02:47.852Z,1002.27
2017-09-12T08:04:10.862Z,1002.23
2017-09-12T08:05:34.906Z,1002.29
2017-09-12T08:06:58.174Z,1002.27
2017-09-12T08:08:20.973Z,1002.25
2017-09-12T08:09:44.016Z,1002.27
2017-09-12T08:11:06.492Z,1002.32
2017-09-12T08:12:28.343Z,1002.36
2017-09-12T08:13:50.493Z,1002.38
2017-09-12T08:15:13.043Z,1002.33
2017-09-12T08:16:34.942Z,1002.38
2017-09-12T08:17:57.142Z,1002.32
2017-09-12T08:19:18.670Z,1002.41
2017-09-12T08:20:41.153Z,1002.34
2017-09-12T08:22:02.972Z,1002.37
2017-09-12T08:23:24.783Z,1002.44
2017-09-12T08:24:47.213Z,1002.4
2017-09-12T08:26:09.813Z,1002.41
2017-09-12T08:27:32.262Z,1002.47
2017-09-12T08:28:54.804Z,1002.47
2017-09-12T08:30:17.013Z,1002.5
2017-09-12T08:31:39.764Z,1002.47
2017-09-12T08:33:02.238Z,1002.64
2017-09-12T08:34:24.381Z,1002.61
2017-09-12T08:35:45.883Z,1002.66
2017-09-12T08:37:08.622Z,1002.67
2017-09-12T08:38:31.099Z,1002.64
2017-09-12T08:39:53.040Z,1002.66
2017-09-12T08:41:15.523Z,1002.59
2017-09-12T08:42:37.696Z,1002.65
2017-09-12T08:44:00.190Z,1002.61
2017-09-12T08:45:21.759Z,1002.66
2017-09-12T08:46:44.248Z,1002.6
2017-09-12T08:48:05.463Z,1002.57
2017-09-12T08:49:27.323Z,1002.63
2017-09-12T08:50:49.495Z,1002.66
2017-09-12T08:52:11.032Z,1002.66
2017-09-12T08:53:33.473Z,1002.66
2017-09-12T08:54:55.612Z,1002.63
2017-09-12T08:56:17.762Z,1002.64
2017-09-12T08:57:39.930Z,1002.69
2017-09-12T08:59:02.472Z,1002.67
2017-09-12T09:00:24.619Z,1002.76
2017-09-12T09:01:46.452Z,1002.84
2017-09-12T09:03:09.024Z,1002.77
2017-09-12T09:04:31.479Z,1002.78
2017-09-12T09:05:53.620Z,1002.74
2017-09-12T09:07:15.445Z,1002.88
2017-09-12T09:08:37.265Z,1002.87
2017-09-12T09:09:59.330Z,1002.92
2017-09-12T09:11:21.229Z,1002.87
2017-09-12T09:12:43.069Z,1002.84
2017-09-12T09:14:04.992Z,1002.88
2017-09-12T09:15:27.262Z,1002.9
2017-09-12T09:16:48.782Z,1002.95
2017-09-12T09:18:10.615Z,1002.91
2017-09-12T09:19:33.064Z,1002.94
2017-09-12T09:20:55.335Z,1002.96
2017-09-12T09:22:17.494Z,1003.07
2017-09-12T09:23:39.953Z,1003.04
2017-09-12T09:25:02.146Z,1003
2017-09-12T09:26:24.546Z,1003.09
2017-09-12T09:27:47.033Z,1003.09
2017-09-12T09:29:08.568Z,1003.05
2017-09-12T09:30:30.722Z,1003.09
2017-09-12T09:31:53.116Z,1003.07
2017-09-12T09:33:15.272Z,1003.06
2017-09-12T09:34:37.453Z,1003.06
2017-09-12T09:35:59.611Z,1003.02
2017-09-12T09:37:21.982Z,1003.03
2017-09-12T09:38:43.472Z,1003.05
2017-09-12T09:40:05.985Z,1003.05
2017-09-12T09:41:28.143Z,1003.08
2017-09-12T09:42:50.331Z,1003.06
2017-09-12T09:44:11.882Z,1003.1
2017-09-12T09:45:33.762Z,1003.1
2017-09-12T09:46:55.666Z,1002.99
2017-09-12T09:48:18.492Z,1003.07
2017-09-12T09:49:40.629Z,1003.09
2017-09-12T09:51:03.082Z,1003.12
2017-09-12T09:52:24.922Z,1003.14
2017-09-12T09:53:47.474Z,1003.11
2017-09-12T09:55:09.941Z,1003.23
2017-09-12T09:56:32.074Z,1003.22
2017-09-12T09:57:54.287Z,1003.35
2017-09-12T09:59:17.112Z,1003.31
2017-09-12T10:00:38.285Z,1003.36
2017-09-12T10:02:00.129Z,1003.32
2017-09-12T10:03:22.274Z,1003.28
2017-09-12T10:04:44.670Z,1003.29
2017-09-12T10:06:07.142Z,1003.29
2017-09-12T10:07:29.304Z,1003.28
2017-09-12T10:08:50.818Z,1003.25
2017-09-12T10:10:13.750Z,1003.24
2017-09-12T10:11:34.942Z,1003.3
2017-09-12T10:12:57.097Z,1003.31
2017-09-12T10:14:19.340Z,1003.28
2017-09-12T10:15:42.055Z,1003.35
2017-09-12T10:17:04.202Z,1003.38
2017-09-12T10:18:26.682Z,1003.35
2017-09-12T10:19:48.521Z,1003.4
2017-09-12T10:21:10.596Z,1003.46
2017-09-12T10:22:32.822Z,1003.34
2017-09-12T10:23:54.972Z,1003.4
2017-09-12T10:25:17.106Z,1003.41
2017-09-12T10:26:39.501Z,1003.45
2017-09-12T10:28:01.028Z,1003.41
2017-09-12T10:29:23.155Z,1003.38
2017-09-12T10:30:44.682Z,1003.47
2017-09-12T10:32:06.846Z,1003.46
2017-09-12T10:33:28.985Z,1003.47
2017-09-12T10:34:51.441Z,1003.42
2017-09-12T10:36:13.968Z,1003.56
2017-09-12T10:37:35.434Z,1003.53
2017-09-12T10:38:57.943Z,1003.64
2017-09-12T10:40:20.102Z,1003.59
2017-09-12T10:41:41.626Z,1003.68
2017-09-12T10:43:04.084Z,1003.46
2017-09-12T10:44:26.263Z,1003.57
2017-09-12T10:45:48.085Z,1003.62
2017-09-12T10:47:10.251Z,1003.64
2017-09-12T10:48:33.124Z,1003.62
2017-09-12T10:49:54.962Z,1003.65
2017-09-12T10:51:17.110Z,1003.68
2017-09-12T10:52:39.257Z,1003.54
2017-09-12T10:54:01.802Z,1003.7
2017-09-12T10:55:24.263Z,1003.71
2017-09-12T10:56:46.423Z,1003.64
2017-09-12T10:58:08.562Z,1003.7
2017-09-12T10:59:30.991Z,1003.69
2017-09-12T11:00:52.917Z,1003.65
2017-09-12T11:02:14.760Z,1003.68
2017-09-12T11:03:36.903Z,1003.71
2017-09-12T11:04:58.972Z,1003.77
2017-09-12T11:06:21.474Z,1003.74
2017-09-12T11:07:43.628Z,1003.76
2017-09-12T11:09:05.841Z,1003.77
2017-09-12T11:10:28.046Z,1003.79
2017-09-12T11:11:49.853Z,1003.68
2017-09-12T11:13:11.813Z,1003.74
2017-09-12T11:14:33.965Z,1003.61
2017-09-12T11:15:56.092Z,1003.61
2017-09-12T11:17:17.996Z,1003.57
2017-09-12T11:18:40.485Z,1003.66
2017-09-12T11:20:02.648Z,1003.67
2017-09-12T11:21:25.410Z,1003.68
2017-09-12T11:22:47.554Z,1003.74
2017-09-12T11:24:09.718Z,1003.69
2017-09-12T11:25:31.923Z,1003.69
2017-09-12T11:26:54.529Z,1003.7
2017-09-12T11:28:16.349Z,1003.71
2017-09-12T11:29:38.260Z,1003.73
2017-09-12T11:31:00.416Z,1003.82
2017-09-12T11:32:22.261Z,1003.75
2017-09-12T11:33:44.412Z,1003.84
2017-09-12T11:35:06.566Z,1003.92
2017-09-12T11:36:28.766Z,1003.93
2017-09-12T11:37:51.035Z,1003.99
2017-09-12T11:39:12.860Z,1004
2017-09-12T11:40:35.110Z,1003.98
2017-09-12T11:41:57.602Z,1003.96
2017-09-12T11:43:20.026Z,1003.96
2017-09-12T11:44:42.504Z,1003.91
2017-09-12T11:46:05.060Z,1003.97
2017-09-12T11:47:27.204Z,1003.94
2017-09-12T11:48:50.047Z,1004.06
2017-09-12T11:50:12.205Z,1004.11
2017-09-12T11:51:34.664Z,1004.15
2017-09-12T11:52:56.538Z,1004.12
2017-09-12T11:54:18.983Z,1004.29
2017-09-12T11:55:41.165Z,1004.35
2017-09-12T11:57:02.969Z,1004.39
2017-09-12T11:58:25.165Z,1004.39
2017-09-12T11:59:47.283Z,1004.42
2017-09-12T12:01:09.163Z,1004.43
2017-09-12T12:02:31.006Z,1004.46
2017-09-12T12:03:53.176Z,1004.45
2017-09-12T12:05:15.642Z,1004.51
2017-09-12T12:06:38.116Z,1004.48
2017-09-12T12:08:00.626Z,1004.48
2017-09-12T12:09:23.077Z,1004.57
2017-09-12T12:10:45.483Z,1004.61
2017-09-12T12:12:07.626Z,1004.62
2017-09-12T12:13:30.086Z,1004.64
2017-09-12T12:14:52.548Z,1004.63
2017-09-12T12:16:14.816Z,1004.64
2017-09-12T12:17:36.975Z,1004.69
2017-09-12T12:18:59.531Z,1004.73
2017-09-12T12:20:21.044Z,1004.75
2017-09-12T12:21:43.531Z,1004.76
2017-09-12T12:23:05.685Z,1004.77
2017-09-12T12:24:27.525Z,1004.79
2017-09-12T12:25:49.354Z,1004.78
2017-09-12T12:27:11.866Z,1004.74
2017-09-12T12:28:34.015Z,1004.72
2017-09-12T12:29:55.511Z,1004.68
2017-09-12T12:31:18.076Z,1004.67
2017-09-12T12:32:40.226Z,1004.71
2017-09-12T12:34:02.825Z,1004.68
2017-09-12T12:35:25.137Z,1004.77
2017-09-12T12:36:47.302Z,1004.75
2017-09-12T12:38:09.744Z,1004.74
2017-09-12T12:39:31.565Z,1004.79
2017-09-12T12:40:53.714Z,1004.79
2017-09-12T12:42:15.877Z,1004.83
2017-09-12T12:43:38.722Z,1004.83
2017-09-12T12:45:01.279Z,1004.84
2017-09-12T12:46:23.150Z,1004.83
2017-09-12T12:47:45.304Z,1004.89
2017-09-12T12:49:07.772Z,1004.95
2017-09-12T12:50:30.335Z,1004.94
2017-09-12T12:51:52.965Z,1004.9
2017-09-12T12:53:15.155Z,1004.9
2017-09-12T12:54:37.946Z,1004.9
2017-09-12T12:56:00.437Z,1004.97
2017-09-12T12:57:22.705Z,1005.03
2017-09-12T12:58:44.574Z,1005.11
2017-09-12T13:00:06.744Z,1005.13
2017-09-12T13:01:29.205Z,1005.19
2017-09-12T13:02:51.802Z,1005.16
2017-09-12T13:04:14.264Z,1005.11
2017-09-12T13:05:36.776Z,1005.15
2017-09-12T13:06:59.264Z,1005.21
2017-09-12T13:08:21.228Z,1005.27
2017-09-12T13:09:43.376Z,1005.3
2017-09-12T13:11:06.153Z,1005.34
2017-09-12T13:12:27.995Z,1005.38
2017-09-12T13:13:50.512Z,1005.41
2017-09-12T13:15:12.025Z,1005.46
2017-09-12T13:16:34.445Z,1005.43
2017-09-12T13:17:56.922Z,1005.4
2017-09-12T13:19:18.493Z,1005.32
2017-09-12T13:20:40.393Z,1005.31
2017-09-12T13:22:02.836Z,1005.26
2017-09-12T13:23:24.714Z,1005.25
2017-09-12T13:24:46.900Z,1005.24
2017-09-12T13:26:09.484Z,1005.25
2017-09-12T13:27:31.556Z,1005.26
2017-09-12T13:28:53.384Z,1005.27
2017-09-12T13:30:15.542Z,1005.22
2017-09-12T13:31:37.094Z,1005.21
2017-09-12T13:32:59.193Z,1005.29
2017-09-12T13:34:21.104Z,1005.29
2017-09-12T13:35:43.135Z,1005.26
2017-09-12T13:37:05.630Z,1005.33
2017-09-12T13:38:28.175Z,1005.29
2017-09-12T13:39:50.646Z,1005.38
2017-09-12T13:41:12.805Z,1005.34
2017-09-12T13:42:34.693Z,1005.34
2017-09-12T13:43:57.154Z,1005.34
2017-09-12T13:45:19.625Z,1005.32
2017-09-12T13:46:42.113Z,1005.32
2017-09-12T13:48:04.277Z,1005.26
2017-09-12T13:49:26.382Z,1005.34
2017-09-12T13:50:48.597Z,1005.2
2017-09-12T13:52:10.820Z,1005.3
2017-09-12T13:53:32.643Z,1005.33
2017-09-12T13:54:54.736Z,1005.25
2017-09-12T13:56:17.363Z,1005.28
2017-09-12T13:57:39.661Z,1005.29
2017-09-12T13:59:01.812Z,1005.25
2017-09-12T14:00:24.443Z,1005.3
2017-09-12T14:01:46.602Z,1005.27
2017-09-12T14:03:08.752Z,1005.28
2017-09-12T14:04:30.892Z,1005.25
2017-09-12T14:05:53.044Z,1005.25
2017-09-12T14:07:15.212Z,1005.33
2017-09-12T14:08:37.345Z,1005.22
2017-09-12T14:09:59.835Z,1005.28
2017-09-12T14:11:22.479Z,1005.29
2017-09-12T14:12:44.782Z,1005.3
2017-09-12T14:14:06.948Z,1005.28
2017-09-12T14:15:29.184Z,1005.32
2017-09-12T14:16:51.922Z,1005.33
2017-09-12T14:18:14.173Z,1005.35
2017-09-12T14:19:36.648Z,1005.32
2017-09-12T14:20:58.509Z,1005.33
2017-09-12T14:22:20.678Z,1005.32
2017-09-12T14:23:42.524Z,1005.36
2017-09-12T14:25:04.081Z,1005.42
2017-09-12T14:26:26.328Z,1005.41
2017-09-12T14:27:49.084Z,1005.39
2017-09-12T14:29:11.400Z,1005.43
2017-09-12T14:30:32.922Z,1005.41
2017-09-12T14:31:55.082Z,1005.45
2017-09-12T14:33:17.865Z,1005.51
2017-09-12T14:34:40.013Z,1005.53
2017-09-12T14:36:02.540Z,1005.56
2017-09-12T14:37:24.702Z,1005.57
2017-09-12T14:38:47.193Z,1005.56
2017-09-12T14:40:09.673Z,1005.61
2017-09-12T14:41:32.224Z,1005.56
2017-09-12T14:42:54.780Z,1005.57
2017-09-12T14:44:17.197Z,1005.64
2017-09-12T14:45:39.664Z,1005.67
2017-09-12T14:47:02.137Z,1005.68
2017-09-12T14:48:24.654Z,1005.69
2017-09-12T14:49:46.733Z,1005.72
2017-09-12T14:51:09.206Z,1005.74
2017-09-12T14:52:31.057Z,1005.77
2017-09-12T14:53:53.632Z,1005.77
2017-09-12T14:55:15.794Z,1005.74
2017-09-12T14:56:38.320Z,1005.85
2017-09-12T14:57:59.940Z,1005.84
2017-09-12T14:59:22.122Z,1005.8
2017-09-12T15:00:44.244Z,1005.89
2017-09-12T15:02:06.113Z,1005.89
2017-09-12T15:03:28.608Z,1005.87
2017-09-12T15:04:51.093Z,1005.91
2017-09-12T15:06:13.264Z,1006.03
2017-09-12T15:07:35.423Z,1006.06
2017-09-12T15:08:57.562Z,1006.1
2017-09-12T15:10:20.062Z,1006.23
2017-09-12T15:11:42.288Z,1006.25
2017-09-12T15:13:04.795Z,1006.26
2017-09-12T15:14:27.307Z,1006.32
2017-09-12T15:15:49.895Z,1006.25
2017-09-12T15:17:12.644Z,1006.33
2017-09-12T15:18:35.124Z,1006.36
2017-09-12T15:19:57.278Z,1006.35
2017-09-12T15:21:19.453Z,1006.33
2017-09-12T15:22:42.264Z,1006.35
2017-09-12T15:24:04.102Z,1006.37
2017-09-12T15:25:26.254Z,1006.37
2017-09-12T15:26:48.745Z,1006.35
2017-09-12T15:28:11.165Z,1006.39
2017-09-12T15:29:33.342Z,1006.4
2017-09-12T15:30:55.863Z,1006.4
2017-09-12T15:32:18.350Z,1006.41
2017-09-12T15:33:40.802Z,1006.39
2017-09-12T15:35:03.452Z,1006.44
2017-09-12T15:36:25.619Z,1006.32
2017-09-12T15:37:47.792Z,1006.33
2017-09-12T15:39:10.260Z,1006.31
2017-09-12T15:40:32.744Z,1006.34
2017-09-12T15:41:54.582Z,1006.37
2017-09-12T15:43:16.737Z,1006.4
2017-09-12T15:44:39.462Z,1006.36
2017-09-12T15:46:01.303Z,1006.38
2017-09-12T15:47:23.819Z,1006.44
2017-09-12T15:48:46.333Z,1006.39
2017-09-12T15:50:08.843Z,1006.41
2017-09-12T15:51:30.996Z,1006.44
2017-09-12T15:52:53.197Z,1006.45
2017-09-12T15:54:15.504Z,1006.47
2017-09-12T15:55:37.595Z,1006.42
2017-09-12T15:56:59.751Z,1006.42
2017-09-12T15:58:21.912Z,1006.43
2017-09-12T15:59:44.134Z,1006.44
2017-09-12T16:01:06.885Z,1006.42
2017-09-12T16:02:29.366Z,1006.33
2017-09-12T16:03:51.957Z,1006.36
2017-09-12T16:05:14.363Z,1006.35
2017-09-12T16:06:37.079Z,1006.39
2017-09-12T16:07:59.225Z,1006.42
2017-09-12T16:09:21.755Z,1006.53
2017-09-12T16:10:44.265Z,1006.57
2017-09-12T16:12:06.757Z,1006.61
2017-09-12T16:13:29.258Z,1006.66
2017-09-12T16:14:51.432Z,1006.63
2017-09-12T16:16:13.282Z,1006.69
2017-09-12T16:17:35.477Z,1006.64
2017-09-12T16:18:57.630Z,1006.68
2017-09-12T16:20:20.114Z,1006.7
2017-09-12T16:21:42.292Z,1006.72
2017-09-12T16:23:04.874Z,1006.68
2017-09-12T16:24:27.465Z,1006.7
2017-09-12T16:25:49.632Z,1006.71
2017-09-12T16:27:12.173Z,1006.67
2017-09-12T16:28:34.682Z,1006.65
2017-09-12T16:29:56.943Z,1006.7
2017-09-12T16:31:18.885Z,1006.68
2017-09-12T16:32:41.126Z,1006.72
2017-09-12T16:34:03.586Z,1006.68
2017-09-12T16:35:25.743Z,1006.71
2017-09-12T16:36:47.902Z,1006.71
2017-09-12T16:38:09.434Z,1006.72
2017-09-12T16:39:31.742Z,1006.69
2017-09-12T16:40:53.593Z,1006.66
2017-09-12T16:42:15.765Z,1006.69
2017-09-12T16:43:38.373Z,1006.64
2017-09-12T16:45:00.420Z,1006.65
2017-09-12T16:46:22.573Z,1006.64
2017-09-12T16:47:44.733Z,1006.64
2017-09-12T16:49:07.212Z,1006.59